Time;durP1;ratioP1;P1;durP2;ratioP2;P2;SDS_P1;SDS_P2;PMS_P1;PMS_P2;Temp;Humidity;BMP_temperature;BMP_pressure;BME280_temperature;BME280_humidity;BME280_pressure;Samples;Min_cycle;Max_cycle;Signal;HPM_P1;HPM_P2
2022/07/15 00:01:43;;;;;;;6.95;1.87;;;;;;;21.66;56.58;99391.87;4490057;31;35453;-80
2022/07/15 00:04:31;;;;;;;4.30;1.87;;;;;;;21.97;55.65;99432.22;4484348;31;34026;-80
2022/07/15 00:07:17;;;;;;;4.68;1.58;;;;;;;21.69;56.30;99438.50;4490558;31;34087;-79
2022/07/15 00:10:13;;;;;;;6.72;1.70;;;;;;;22.48;53.47;99422.03;4484447;31;34927;-80
2022/07/15 00:13:01;;;;;;;3.67;1.52;;;;;;;23.27;51.56;99403.28;4484261;31;34535;-79
2022/07/15 00:15:48;;;;;;;5.45;1.70;;;;;;;23.13;52.08;99401.31;4490141;31;34089;-80
2022/07/15 00:18:34;;;;;;;3.87;1.67;;;;;;;22.12;55.15;99416.38;4497697;31;35596;-80
2022/07/15 00:21:22;;;;;;;3.65;1.55;;;;;;;22.63;53.46;99415.28;4497771;31;34472;-80
2022/07/15 00:24:08;;;;;;;5.90;1.55;;;;;;;23.24;51.98;99413.25;4497537;31;34224;-80
2022/07/15 00:26:56;;;;;;;4.57;1.80;;;;;;;23.86;49.89;99406.31;4497267;31;34078;-80
2022/07/15 00:29:44;;;;;;;3.45;1.40;;;;;;;23.69;51.31;99398.78;4497478;31;34671;-80
2022/07/15 00:32:32;;;;;;;3.58;1.60;;;;;;;24.04;50.29;99378.25;4497833;31;35807;-80
2022/07/15 00:35:18;;;;;;;4.28;1.80;;;;;;;23.68;50.83;99370.00;4497463;31;34883;-80
2022/07/15 00:38:08;;;;;;;5.80;1.60;;;;;;;24.00;49.85;99369.88;4485229;31;34096;-80
2022/07/15 00:41:01;;;;;;;3.67;1.67;;;;;;;24.13;49.97;99349.78;4496996;31;35452;-80
2022/07/15 00:43:50;;;;;;;6.40;1.52;;;;;;;23.03;52.79;99379.78;4496962;31;35590;-80
2022/07/15 00:46:41;;;;;;;3.53;1.50;;;;;;;23.39;51.74;99360.91;4496132;31;34567;-80
2022/07/15 00:49:30;;;;;;;2.80;1.37;;;;;;;23.53;51.87;99343.28;4475229;31;34157;-80
2022/07/15 00:52:19;;;;;;;4.43;1.40;;;;;;;24.13;50.11;99347.78;4484980;31;35508;-80
2022/07/15 00:55:09;;;;;;;5.80;1.62;;;;;;;24.33;49.87;99348.06;4484186;31;34943;-80
2022/07/15 00:58:04;;;;;;;2.95;1.60;;;;;;;24.01;51.06;99342.69;4485352;31;34630;-80
2022/07/15 01:00:52;;;;;;;2.08;1.33;;;;;;;24.49;49.22;99336.38;4483877;31;34935;-80
2022/07/15 01:03:39;;;;;;;4.60;1.58;;;;;;;24.36;49.13;99341.66;4483813;31;35378;-80
2022/07/15 01:06:28;;;;;;;5.72;1.42;;;;;;;23.70;51.46;99367.63;4483599;31;35067;-80
2022/07/15 01:09:14;;;;;;;8.07;1.80;;;;;;;23.07;52.97;99386.16;4496731;31;34541;-80
2022/07/15 01:12:00;;;;;;;2.05;1.48;;;;;;;23.15;53.38;99398.13;4496087;31;34414;-80
2022/07/15 01:14:46;;;;;;;3.40;1.62;;;;;;;23.38;52.95;99394.88;4496780;31;35436;-80
2022/07/15 01:17:35;;;;;;;5.45;1.60;;;;;;;23.74;51.24;99396.38;4485812;31;34980;-80
2022/07/15 01:20:26;;;;;;;3.37;1.50;;;;;;;23.42;52.72;99406.84;4484283;31;34470;-80
2022/07/15 01:23:12;;;;;;;5.37;2.00;;;;;;;23.97;50.90;99397.88;4487536;31;34155;-80
2022/07/15 01:26:00;;;;;;;9.00;2.03;;;;;;;23.18;53.01;99417.69;4488890;31;34802;-80
2022/07/15 01:28:48;;;;;;;4.62;1.67;;;;;;;23.08;53.33;99424.06;4483232;31;35910;-80
2022/07/15 01:31:35;;;;;;;4.47;2.00;;;;;;;22.80;54.50;99422.88;4495346;31;35126;-80
2022/07/15 01:34:22;;;;;;;3.25;1.87;;;;;;;23.11;53.89;99426.09;4480407;31;35141;-81
2022/07/15 01:37:09;;;;;;;8.43;2.35;;;;;;;23.04;54.06;99426.06;4484804;31;34593;-80
2022/07/15 01:39:57;;;;;;;4.55;1.77;;;;;;;22.94;54.07;99416.50;4479183;31;35413;-80
2022/07/15 01:42:44;;;;;;;3.67;1.85;;;;;;;22.74;54.79;99418.06;4489771;31;35488;-80
2022/07/15 01:45:31;;;;;;;4.35;2.17;;;;;;;23.12;54.03;99410.91;4480404;31;34140;-79
2022/07/15 01:51:27;;;;;;;3.75;1.73;;;;;;;22.79;55.80;99415.66;4485982;31;35480;-79
2022/07/15 01:54:13;;;;;;;4.65;2.08;;;;;;;22.94;55.72;99419.28;4483541;31;35057;-80
2022/07/15 01:57:00;;;;;;;4.65;2.05;;;;;;;22.85;56.26;99419.69;4490999;31;35088;-80
2022/07/15 01:59:47;;;;;;;5.25;2.08;;;;;;;22.94;55.90;99410.06;4478549;31;34580;-80
2022/07/15 02:02:38;;;;;;;5.37;2.05;;;;;;;22.93;56.38;99419.66;4483633;31;35794;-80
2022/07/15 02:05:25;;;;;;;3.53;1.75;;;;;;;22.45;58.22;99435.59;4491645;31;33649;-80
2022/07/15 02:08:11;;;;;;;4.82;1.90;;;;;;;22.63;57.18;99429.25;4487910;31;34097;-79
2022/07/15 02:11:01;;;;;;;7.37;2.20;;;;;;;22.51;57.96;99410.06;4478616;31;34609;-79
2022/07/15 02:13:48;;;;;;;3.50;1.87;;;;;;;23.27;56.71;99390.09;4471664;31;34550;-80
2022/07/15 02:16:35;;;;;;;4.37;2.15;;;;;;;22.81;57.23;99402.09;4481255;31;35113;-80
2022/07/15 02:19:22;;;;;;;3.37;1.92;;;;;;;22.70;57.64;99406.09;4484090;31;34498;-79
2022/07/15 02:22:12;;;;;;;5.60;1.90;;;;;;;22.71;57.02;99408.47;4492402;31;35245;-80
2022/07/15 02:24:58;;;;;;;5.37;1.70;;;;;;;22.87;57.14;99422.84;4484115;31;34885;-80
2022/07/15 02:27:46;;;;;;;5.18;1.70;;;;;;;22.97;55.60;99431.66;4481997;31;34667;-80
2022/07/15 02:30:37;;;;;;;4.25;1.85;;;;;;;22.74;55.36;99457.16;4487425;31;34205;-80
2022/07/15 02:33:25;;;;;;;3.80;1.90;;;;;;;22.56;56.60;99469.09;4484136;31;34690;-79
2022/07/15 02:36:12;;;;;;;3.45;1.35;;;;;;;22.72;56.41;99488.28;4485673;31;34533;-80
2022/07/15 02:38:59;;;;;;;2.55;1.40;;;;;;;23.01;53.95;99511.50;4491602;31;34614;-79
2022/07/15 02:41:49;;;;;;;5.60;0.90;;;;;;;23.25;52.85;99521.09;4483607;31;34076;-79
2022/07/15 02:44:36;;;;;;;5.82;1.23;;;;;;;23.11;49.70;99513.50;4482662;31;34604;-79
2022/07/15 02:47:25;;;;;;;1.48;1.15;;;;;;;23.24;48.33;99507.50;4494091;31;35162;-80
2022/07/15 02:50:11;;;;;;;4.00;0.98;;;;;;;23.45;46.89;99506.69;4492735;31;35502;-79
2022/07/15 02:52:58;;;;;;;1.50;0.80;;;;;;;23.63;44.90;99507.47;4494217;31;35003;-78
2022/07/15 02:55:45;;;;;;;2.00;0.73;;;;;;;23.70;44.50;99496.28;4492122;31;35500;-79
2022/07/15 02:58:32;;;;;;;1.27;0.73;;;;;;;23.62;44.34;99505.06;4489939;31;34939;-79
2022/07/15 03:01:19;;;;;;;2.78;0.95;;;;;;;23.64;43.78;99514.66;4484172;31;34564;-78
2022/07/15 03:04:06;;;;;;;0.90;0.70;;;;;;;23.91;43.36;99500.25;4491648;31;34141;-78
2022/07/15 03:06:52;;;;;;;2.12;0.73;;;;;;;23.79;43.24;99498.66;4485274;31;34870;-78
2022/07/15 03:09:39;;;;;;;0.95;0.80;;;;;;;23.77;43.09;99507.47;4480442;31;34897;-79
2022/07/15 03:12:26;;;;;;;1.67;0.88;;;;;;;24.00;42.60;99495.00;4494686;31;35505;-79
2022/07/15 03:15:13;;;;;;;1.10;0.70;;;;;;;23.85;42.94;99497.06;4481098;31;34082;-79
2022/07/15 03:18:01;;;;;;;1.62;0.88;;;;;;;23.98;42.81;99494.59;4485711;31;34628;-79
2022/07/15 03:20:48;;;;;;;0.85;0.75;;;;;;;23.93;43.17;99503.41;4485910;31;35876;-79
2022/07/15 03:23:38;;;;;;;1.55;0.90;;;;;;;23.73;44.09;99512.25;4496739;31;33269;-79
2022/07/15 03:26:26;;;;;;;;;;;;;;;24.01;43.00;99510.59;4486610;31;34309;-79
2022/07/15 03:29:16;;;;;;;0.90;0.70;;;;;;;23.90;43.22;99498.63;4497498;31;35827;-79
2022/07/15 03:32:03;;;;;;;1.60;0.75;;;;;;;24.00;43.39;99509.00;4498030;31;35830;-80
2022/07/15 03:34:49;;;;;;;1.40;0.80;;;;;;;23.79;43.90;99510.66;4497655;31;34600;-78
2022/07/15 03:37:37;;;;;;;2.75;1.00;;;;;;;23.87;43.93;99502.22;4497908;31;33848;-79
2022/07/15 03:40:23;;;;;;;2.67;0.80;;;;;;;23.99;43.86;99496.19;4497670;31;34591;-80
2022/07/15 03:43:10;;;;;;;1.83;0.90;;;;;;;23.95;43.96;99498.22;4485153;31;34922;-79
2022/07/15 03:45:58;;;;;;;1.55;0.80;;;;;;;24.51;43.15;99502.00;4485269;31;34509;-80
2022/07/15 03:48:47;;;;;;;4.50;2.28;;;;;;;23.87;45.66;99502.22;4485532;31;32841;-79
2022/07/15 03:51:34;;;;;;;5.75;1.10;;;;;;;23.95;45.08;99512.19;4497405;31;34650;-80
2022/07/15 03:54:21;;;;;;;3.55;0.98;;;;;;;22.96;48.21;99505.50;4497001;31;36060;-79
2022/07/15 03:57:07;;;;;;;3.60;0.88;;;;;;;23.11;48.93;99521.09;4484669;31;35399;-80
2022/07/15 03:59:55;;;;;;;1.75;1.00;;;;;;;22.83;49.55;99541.38;4497835;31;34142;-80
2022/07/15 04:02:41;;;;;;;1.52;0.75;;;;;;;22.87;50.05;99547.75;4485768;31;34712;-79
2022/07/15 04:05:34;;;;;;;0.93;0.70;;;;;;;22.90;49.71;99542.19;4497179;31;35120;-79
2022/07/15 04:08:21;;;;;;;1.55;0.90;;;;;;;22.99;49.72;99539.03;4497116;31;35699;-80
2022/07/15 04:11:10;;;;;;;4.57;1.02;;;;;;;23.16;49.19;99536.66;4496136;31;34191;-79
2022/07/15 04:13:59;;;;;;;0.85;0.70;;;;;;;23.19;49.02;99533.84;4497086;31;35544;-81
2022/07/15 04:16:46;;;;;;;1.77;0.80;;;;;;;22.72;49.90;99526.59;4493143;31;36033;-80
2022/07/15 04:19:33;;;;;;;2.17;0.80;;;;;;;22.67;50.89;99530.56;4490883;31;34718;-79
2022/07/15 04:22:21;;;;;;;3.00;0.80;;;;;;;22.97;49.93;99535.84;4488245;31;34055;-80
2022/07/15 04:25:09;;;;;;;3.75;0.90;;;;;;;23.34;48.78;99538.25;4468863;31;34298;-79
2022/07/15 04:27:56;;;;;;;2.00;0.77;;;;;;;22.30;51.47;99544.81;4496030;31;36025;-81
2022/07/15 04:30:43;;;;;;;1.20;0.82;;;;;;;22.14;52.25;99557.09;4487474;31;34995;-80
2022/07/15 04:33:31;;;;;;;3.50;0.70;;;;;;;22.39;51.70;99557.19;4492696;31;34085;-80
2022/07/15 04:36:17;;;;;;;1.90;0.68;;;;;;;22.30;52.40;99567.94;4488856;31;35529;-79
2022/07/15 04:39:06;;;;;;;1.08;0.85;;;;;;;21.94;54.52;99570.53;4485902;31;34912;-79
2022/07/15 04:41:55;;;;;;;2.30;1.37;;;;;;;22.20;53.10;99563.12;4484508;31;34547;-80
2022/07/15 04:44:44;;;;;;;1.77;1.08;;;;;;;22.13;53.81;99566.63;4489931;31;34675;-79
2022/07/15 04:47:33;;;;;;;3.35;1.20;;;;;;;22.15;54.18;99566.25;4482404;31;35437;-79
2022/07/15 04:53:30;;;;;;;3.83;1.12;;;;;;;21.72;56.51;99571.56;4484646;31;35674;-79
2022/07/15 04:56:17;;;;;;;4.28;1.27;;;;;;;21.53;57.45;99576.19;4494164;31;34114;-78
2022/07/15 04:59:04;;;;;;;2.35;1.33;;;;;;;21.65;57.60;99563.16;4489990;31;35544;-79
2022/07/15 05:01:53;;;;;;;3.00;0.90;;;;;;;21.54;58.11;99572.25;4483595;31;36017;-78
2022/07/15 05:04:42;;;;;;;1.52;1.02;;;;;;;21.21;59.86;99575.13;4485739;31;34193;-80
2022/07/15 05:07:29;;;;;;;2.72;1.42;;;;;;;21.34;60.00;99579.19;4496532;31;34172;-80
2022/07/15 05:10:16;;;;;;;3.65;1.25;;;;;;;21.26;61.31;99561.63;4492344;31;35651;-79
2022/07/15 05:13:04;;;;;;;3.62;1.10;;;;;;;20.93;62.28;99558.94;4472818;31;34655;-79
2022/07/15 05:15:51;;;;;;;3.55;1.48;;;;;;;20.75;63.45;99558.72;4472537;31;34588;-79
2022/07/15 05:18:40;;;;;;;5.93;1.52;;;;;;;20.56;64.98;99570.88;4487066;31;35122;-79
2022/07/15 05:21:27;;;;;;;4.25;1.55;;;;;;;20.61;64.63;99582.47;4487960;31;34910;-77
2022/07/15 05:24:15;;;;;;;2.92;1.45;;;;;;;20.57;65.64;99594.72;4491083;31;35034;-78
2022/07/15 05:27:16;;;;;;;5.65;1.58;;;;;;;20.21;68.44;99603.41;4485465;31;34689;-79
2022/07/15 05:30:05;;;;;;;3.87;1.58;;;;;;;19.82;71.44;99596.47;4481735;31;34158;-79
2022/07/15 05:32:55;;;;;;;;;;;;;;;19.65;73.34;99595.81;4490838;31;34451;-79
2022/07/15 05:35:44;;;;;;;9.32;1.95;;;;;;;19.58;74.69;99605.97;4488808;31;35272;-78
2022/07/15 05:38:40;;;;;;;5.68;1.50;;;;;;;19.49;76.56;99603.47;4485195;31;34381;-80
2022/07/15 05:41:27;;;;;;;4.55;1.65;;;;;;;19.39;77.32;99609.66;4481575;31;33969;-80
2022/07/15 05:44:15;;;;;;;5.18;1.60;;;;;;;19.36;78.25;99608.41;4482009;31;34550;-78
2022/07/15 05:47:01;;;;;;;3.20;1.90;;;;;;;19.16;79.90;99616.00;4470976;31;36037;-79
2022/07/15 05:49:49;;;;;;;6.12;1.85;;;;;;;19.36;79.26;99629.84;4489869;31;34527;-80
2022/07/15 05:52:38;;;;;;;5.87;1.98;;;;;;;19.06;81.25;99622.16;4495447;31;35012;-79
2022/07/15 05:55:31;;;;;;;3.17;1.70;;;;;;;19.42;79.34;99628.37;4483169;31;34599;-80
2022/07/15 05:58:23;;;;;;;3.20;1.75;;;;;;;19.48;79.59;99635.22;4492463;31;35965;-77
2022/07/15 06:01:14;;;;;;;3.58;2.08;;;;;;;19.16;81.51;99654.09;4488250;31;34658;-79
2022/07/15 06:04:01;;;;;;;3.80;1.75;;;;;;;19.25;81.33;99662.97;4494329;31;35124;-78
2022/07/15 06:06:48;;;;;;;3.55;1.60;;;;;;;19.19;81.82;99678.34;4486178;31;35330;-77
2022/07/15 06:09:37;;;;;;;2.70;1.58;;;;;;;19.26;82.49;99676.50;4485941;31;36030;-77
2022/07/15 06:12:24;;;;;;;3.17;1.83;;;;;;;19.29;82.96;99664.63;4489915;31;34631;-79
2022/07/15 06:15:13;;;;;;;2.72;1.70;;;;;;;19.03;84.59;99664.53;4485790;31;35067;-81
2022/07/15 06:18:01;;;;;;;3.12;1.85;;;;;;;19.36;83.00;99654.84;4489740;31;35144;-80
2022/07/15 06:20:55;;;;;;;3.97;2.10;;;;;;;19.26;83.40;99667.34;4487031;31;35353;-78
2022/07/15 06:23:44;;;;;;;4.03;1.70;;;;;;;19.23;83.55;99666.13;4484252;31;34069;-79
2022/07/15 06:26:32;;;;;;;2.30;1.55;;;;;;;19.14;83.66;99678.66;4483233;31;34389;-79
2022/07/15 06:29:19;;;;;;;4.35;1.75;;;;;;;19.13;83.71;99685.38;4484540;31;35473;-76
2022/07/15 06:32:07;;;;;;;4.72;1.80;;;;;;;19.19;83.54;99690.25;4495142;31;35963;-80
2022/07/15 06:34:54;;;;;;;4.97;1.67;;;;;;;19.02;84.07;99688.75;4482589;31;34509;-79
2022/07/15 06:37:44;;;;;;;3.28;1.90;;;;;;;19.13;83.29;99675.06;4498497;31;35385;-79
2022/07/15 06:40:35;;;;;;;4.72;2.00;;;;;;;19.15;83.54;99677.47;4489944;31;34668;-79
2022/07/15 06:43:28;;;;;;;3.40;2.05;;;;;;;19.28;82.82;99707.47;4492880;31;35643;-79
2022/07/15 06:46:17;;;;;;;5.10;1.90;;;;;;;19.51;81.77;99715.84;4492300;31;34565;-79
2022/07/15 06:49:11;;;;;;;5.62;1.85;;;;;;;19.53;82.17;99718.28;4488311;31;34191;-79
2022/07/15 06:52:08;;;;;;;3.20;1.70;;;;;;;19.22;83.89;99736.75;4485124;31;35454;-79
2022/07/15 06:54:56;;;;;;;2.70;1.80;;;;;;;19.41;83.74;99754.53;4486640;31;35949;-79
2022/07/15 06:57:44;;;;;;;6.35;2.12;;;;;;;19.18;84.48;99773.94;4483475;31;34120;-78
2022/07/15 07:00:33;;;;;;;3.83;1.67;;;;;;;19.25;84.95;99788.78;4490927;31;33701;-81
2022/07/15 07:03:21;;;;;;;4.15;2.00;;;;;;;19.25;85.04;99799.91;4495736;31;34588;-80
2022/07/15 07:06:28;;;;;;;4.62;2.00;;;;;;;19.28;85.81;99801.94;4485310;31;35605;-80
2022/07/15 07:09:15;;;;;;;4.50;2.55;;;;;;;19.09;87.19;99799.94;4483950;31;35399;-80
2022/07/15 07:15:02;;;;;;;6.43;2.40;;;;;;;18.77;88.39;99802.03;4491789;31;34221;-80
2022/07/15 07:17:54;;;;;;;4.30;2.20;;;;;;;18.74;88.72;99794.44;4478071;32;34579;-81
2022/07/15 07:20:43;;;;;;;6.43;2.60;;;;;;;19.16;87.35;99796.53;4474030;32;35080;-79
2022/07/15 07:23:31;;;;;;;5.07;2.42;;;;;;;19.04;89.71;99786.38;4469181;32;34462;-82
2022/07/15 07:26:18;;;;;;;4.43;2.47;;;;;;;19.09;92.01;99796.38;4459106;32;34237;-81
2022/07/15 07:29:05;;;;;;;4.10;2.40;;;;;;;19.01;92.64;99809.31;4464874;32;34934;-81
2022/07/15 07:31:55;;;;;;;3.85;2.10;;;;;;;18.96;94.06;99809.59;4465814;32;34535;-81
2022/07/15 07:35:00;;;;;;;4.35;2.30;;;;;;;18.89;91.97;99820.53;4478139;32;33849;-81
2022/07/15 07:37:52;;;;;;;3.58;2.25;;;;;;;19.03;92.88;99809.75;4469979;32;37950;-81
2022/07/15 07:40:50;;;;;;;3.95;2.30;;;;;;;19.07;90.74;99798.72;4481072;32;35984;-81
2022/07/15 07:43:38;;;;;;;6.87;2.30;;;;;;;19.13;91.74;99791.72;4481388;32;34302;-81
2022/07/15 07:46:26;;;;;;;3.47;2.22;;;;;;;18.94;91.19;99802.78;4481231;32;34180;-81
2022/07/15 07:49:14;;;;;;;4.37;2.40;;;;;;;18.85;91.25;99809.34;4479948;32;34753;-81
2022/07/15 07:52:22;;;;;;;3.97;2.70;;;;;;;18.90;90.55;99818.56;4471792;32;34984;-80
2022/07/15 07:55:15;;;;;;;5.00;2.80;;;;;;;19.53;88.78;99807.19;4471721;32;35447;-81
2022/07/15 07:58:04;;;;;;;3.58;2.72;;;;;;;19.33;90.20;99784.97;4481160;32;34073;-81
2022/07/15 08:00:59;;;;;;;6.22;3.12;;;;;;;19.93;88.13;99809.56;4465454;32;34325;-81
2022/07/15 08:03:46;;;;;;;7.93;3.65;;;;;;;19.61;89.40;99795.06;4477323;32;35061;-82
2022/07/15 08:06:36;;;;;;;4.40;3.20;;;;;;;19.10;92.66;99801.56;4465633;32;34506;-82
2022/07/15 08:09:30;;;;;;;5.40;3.35;;;;;;;19.42;90.62;99789.50;4480283;32;34741;-81
2022/07/15 08:12:20;;;;;;;4.60;3.28;;;;;;;19.64;88.85;99812.97;4479075;32;34610;-82
2022/07/15 08:15:10;;;;;;;7.60;4.18;;;;;;;19.25;92.65;99835.22;4467554;32;34621;-82
2022/07/15 08:17:57;;;;;;;6.30;3.90;;;;;;;19.18;96.85;99841.41;4475778;32;35055;-83
2022/07/15 08:20:51;;;;;;;6.90;4.07;;;;;;;19.19;97.42;99836.66;4469764;32;34788;-83
2022/07/15 08:23:46;;;;;;;8.20;4.57;;;;;;;19.17;97.73;99848.13;4469298;32;35594;-83
2022/07/15 08:26:40;;;;;;;6.62;4.75;;;;;;;18.83;100.00;99853.31;4463804;32;34874;-83
2022/07/15 08:29:35;;;;;;;6.55;4.18;;;;;;;19.58;94.64;99845.81;4480785;32;34613;-83
2022/07/15 08:32:22;;;;;;;7.47;4.07;;;;;;;20.11;94.72;99845.22;4480952;32;33945;-81
2022/07/15 08:35:09;;;;;;;8.00;4.10;;;;;;;20.43;95.61;99848.56;4480915;32;35500;-82
2022/07/15 08:38:09;;;;;;;6.12;4.37;;;;;;;20.38;92.26;99852.47;4468988;32;34715;-83
2022/07/15 08:43:56;;;;;;;7.60;4.07;;;;;;;20.85;90.08;99842.09;4467852;32;34341;-83
2022/07/15 08:46:47;;;;;;;7.37;4.30;;;;;;;21.25;88.26;99832.28;4465245;32;35412;-83
2022/07/15 08:49:45;;;;;;;8.48;4.35;;;;;;;20.98;89.57;99829.56;4479831;32;34933;-84
2022/07/15 08:52:37;;;;;;;6.95;5.25;;;;;;;20.36;91.92;99859.59;4480895;32;34628;-84
2022/07/15 08:55:28;;;;;;;6.50;4.60;;;;;;;19.92;95.13;99860.81;4478448;32;34735;-83
2022/07/15 08:58:18;;;;;;;6.22;4.80;;;;;;;19.31;98.65;99862.31;4468446;32;35487;-83
2022/07/15 09:01:25;;;;;;;9.55;4.45;;;;;;;19.37;98.76;99864.81;4480471;32;34925;-82
2022/07/15 09:04:13;;;;;;;8.77;4.93;;;;;;;19.62;98.67;99859.78;4480794;32;34528;-84
2022/07/15 09:07:03;;;;;;;8.32;4.40;;;;;;;19.84;95.77;99861.03;4479527;32;34124;-83
2022/07/15 09:10:03;;;;;;;6.78;4.35;;;;;;;20.48;92.57;99848.25;4472912;32;34475;-83
2022/07/15 09:12:53;;;;;;;7.72;4.57;;;;;;;20.25;93.07;99872.50;4465828;32;35545;-84
2022/07/15 09:15:41;;;;;;;6.62;4.35;;;;;;;20.19;95.61;99892.28;4468589;31;34022;-83
2022/07/15 09:18:33;;;;;;;6.47;4.75;;;;;;;20.11;92.91;99875.84;4484349;31;33781;-83
2022/07/15 09:21:25;;;;;;;7.72;4.57;;;;;;;20.47;92.06;99854.19;4484424;31;34236;-83
2022/07/15 09:24:18;;;;;;;8.05;4.80;;;;;;;;;;4484622;31;35561;-83
2022/07/15 09:27:32;;;;;;;7.20;4.55;;;;;;;20.69;94.31;99853.41;4484435;31;34931;-83
2022/07/15 09:33:45;;;;;;;6.60;4.28;;;;;;;21.29;87.04;99888.88;4486602;31;35532;-83
2022/07/15 09:36:33;;;;;;;6.22;4.20;;;;;;;20.63;89.69;99883.53;4484182;31;35575;-83
2022/07/15 09:39:22;;;;;;;8.55;4.85;;;;;;;20.75;91.39;99895.63;4496106;31;34562;-83
2022/07/15 09:42:09;;;;;;;9.73;5.22;;;;;;;20.00;99.78;99893.09;4483985;31;35023;-83
2022/07/15 09:45:20;;;;;;;8.70;4.25;;;;;;;20.62;94.06;99895.03;4495056;31;34305;-84
2022/07/15 09:48:12;;;;;;;6.18;4.18;;;;;;;20.62;91.58;99904.19;4495400;31;35057;-84
2022/07/15 09:51:01;;;;;;;6.93;4.18;;;;;;;20.98;89.92;99899.19;4484410;31;35338;-84
2022/07/15 09:53:50;;;;;;;8.07;4.10;;;;;;;21.46;86.01;99895.88;4495769;31;36796;-84
2022/07/15 09:59:31;;;;;;;7.75;4.00;;;;;;;20.86;88.87;99893.81;4484395;31;36136;-83
2022/07/15 10:02:27;;;;;;;5.78;3.92;;;;;;;20.32;86.70;99875.41;4484826;31;35343;-83
2022/07/15 10:05:20;;;;;;;5.85;3.75;;;;;;;20.93;82.33;99876.44;4483449;31;34869;-83
2022/07/15 10:08:12;;;;;;;8.03;4.07;;;;;;;21.39;80.07;99828.91;4483195;31;34767;-82
2022/07/15 10:11:00;;;;;;;5.47;3.28;;;;;;;21.88;74.95;99803.56;4495533;31;34925;-83
2022/07/15 10:14:02;;;;;;;5.68;3.37;;;;;;;21.75;73.00;99805.03;4495552;31;35543;-84
2022/07/15 10:17:04;;;;;;;7.30;3.78;;;;;;;21.65;78.89;99834.41;4473294;31;34076;-83
2022/07/15 10:20:12;;;;;;;6.00;3.97;;;;;;;21.81;78.93;99850.13;4495380;31;35588;-83
2022/07/15 10:23:51;;;;;;;7.87;3.60;;;;;;;21.26;79.30;99851.44;4484861;31;34473;-83
2022/07/15 10:26:51;;;;;;;6.47;3.90;;;;;;;21.49;76.61;99828.25;4415296;32;34583;-82
2022/07/15 10:29:43;;;;;;;8.95;3.97;;;;;;;22.22;76.84;99795.13;4415233;32;35050;-82
2022/07/15 10:33:06;;;;;;;6.18;3.12;;;;;;;22.81;70.80;99787.56;4483441;31;35539;-81
2022/07/15 10:36:03;;;;;;;6.00;2.90;;;;;;;22.30;69.40;99780.06;4497133;31;34971;-82
2022/07/15 10:39:04;;;;;;;7.97;2.15;;;;;;;22.30;60.54;99790.41;4497942;31;34712;-82
2022/07/15 10:42:00;;;;;;;6.25;2.20;;;;;;;22.85;53.73;99804.34;4485850;31;34129;-81
2022/07/15 10:44:58;;;;;;;3.45;1.65;;;;;;;23.16;52.02;99810.53;4485905;31;35431;-82
2022/07/15 10:47:45;;;;;;;5.18;2.00;;;;;;;22.90;46.79;99818.75;4498086;31;35107;-82
2022/07/15 10:50:40;;;;;;;6.12;1.87;;;;;;;22.78;46.53;99824.66;4497842;31;34366;-82
2022/07/15 10:53:32;;;;;;;3.28;1.58;;;;;;;23.04;45.46;99828.44;4475664;31;34007;-82
2022/07/15 10:56:41;;;;;;;4.50;1.95;;;;;;;23.65;43.62;99829.53;4485403;31;35579;-82
2022/07/15 10:59:41;;;;;;;4.03;1.60;;;;;;;23.69;41.56;99821.13;4497973;31;34969;-82
2022/07/15 11:02:31;;;;;;;3.47;1.67;;;;;;;23.77;40.48;99847.97;4486446;31;35419;-82
2022/07/15 11:05:20;;;;;;;5.10;1.85;;;;;;;23.67;39.18;99810.31;4498485;31;34108;-82
2022/07/15 11:08:32;;;;;;;4.57;1.80;;;;;;;23.50;39.55;99822.25;4500225;31;34693;-82
2022/07/15 11:11:20;;;;;;;4.25;1.60;;;;;;;23.30;39.02;99819.78;4485750;31;35113;-82
2022/07/15 11:17:43;;;;;;;8.20;1.67;;;;;;;23.10;38.43;99815.69;4494915;31;35043;-82
2022/07/15 11:20:34;;;;;;;3.95;1.60;;;;;;;23.56;37.13;99815.91;4497960;31;34849;-83
2022/07/15 11:23:31;;;;;;;4.22;1.60;;;;;;;23.96;36.98;99824.41;4481122;31;34679;-82
2022/07/15 11:26:50;;;;;;;3.37;1.85;;;;;;;23.83;36.09;99818.41;4473748;31;34475;-83
2022/07/15 11:29:46;;;;;;;7.35;1.90;;;;;;;24.27;36.04;99819.25;4482556;31;35020;-83
2022/07/15 11:32:33;;;;;;;4.12;1.67;;;;;;;24.33;36.70;99817.63;4482491;31;34123;-81
2022/07/15 11:35:23;;;;;;;4.45;1.70;;;;;;;24.34;34.24;99813.66;4485390;31;35076;-82
2022/07/15 11:38:22;;;;;;;3.92;1.73;;;;;;;24.50;33.84;99814.06;4485845;31;34584;-82
2022/07/15 11:44:31;;;;;;;3.58;1.95;;;;;;;24.98;32.09;99813.59;4491263;31;33707;-83
2022/07/15 11:47:19;;;;;;;3.67;2.15;;;;;;;25.18;31.55;99805.53;4483657;31;34763;-82
2022/07/15 11:50:16;;;;;;;3.65;1.83;;;;;;;24.90;32.93;99814.78;4491443;31;34605;-82
2022/07/15 11:56:15;;;;;;;4.03;1.95;;;;;;;24.70;32.00;99797.63;4481916;31;35488;-81
2022/07/15 11:59:06;;;;;;;5.50;2.10;;;;;;;24.54;32.89;99803.66;4483642;31;35959;-81
2022/07/15 12:02:05;;;;;;;3.80;2.08;;;;;;;24.57;32.55;99804.88;4483964;31;33848;-81
2022/07/15 12:04:55;;;;;;;4.47;2.10;;;;;;;24.22;33.75;99821.25;4482191;31;34128;-82
2022/07/15 12:07:48;;;;;;;4.22;2.30;;;;;;;24.14;34.03;99810.44;4480531;31;34259;-82
2022/07/15 12:10:40;;;;;;;5.00;1.80;;;;;;;24.41;33.68;99817.25;4487260;31;34972;-81
2022/07/15 12:13:28;;;;;;;5.97;2.17;;;;;;;24.39;33.17;99818.84;4492688;31;34270;-82
2022/07/15 12:16:19;;;;;;;5.43;2.15;;;;;;;25.00;33.87;99819.59;4485031;31;34984;-82
2022/07/15 12:19:17;;;;;;;4.93;1.85;;;;;;;25.24;32.10;99822.75;4473420;31;34673;-82
2022/07/15 12:22:08;;;;;;;5.05;2.00;;;;;;;24.54;31.05;99840.09;4491128;31;35621;-81
2022/07/15 12:24:59;;;;;;;3.97;2.00;;;;;;;25.03;30.02;99821.56;4490711;31;33455;-82
2022/07/15 12:27:52;;;;;;;3.35;1.60;;;;;;;25.60;29.05;99814.19;4483052;31;34067;-82
2022/07/15 12:30:41;;;;;;;7.03;1.85;;;;;;;26.18;28.69;99812.63;4484197;31;35005;-80
2022/07/15 12:36:34;;;;;;;4.75;2.10;;;;;;;26.83;26.50;99805.22;4486369;31;35386;-80
2022/07/15 12:39:28;;;;;;;3.67;1.87;;;;;;;26.58;26.21;99794.25;4483878;31;34035;-79
2022/07/15 12:42:17;;;;;;;5.82;2.10;;;;;;;27.24;25.86;99790.34;4483879;31;34307;-80
2022/07/15 12:45:18;;;;;;;6.15;2.20;;;;;;;27.97;26.26;99790.97;4489286;31;35001;-81
2022/07/15 12:48:07;;;;;;;4.68;2.45;;;;;;;27.83;24.67;99791.16;4480839;31;35331;-81
2022/07/15 12:50:58;;;;;;;5.20;2.00;;;;;;;27.08;25.63;99776.84;4488181;31;34107;-81
2022/07/15 12:53:52;;;;;;;4.72;2.20;;;;;;;27.54;25.47;99785.94;4482998;31;35485;-81
2022/07/15 12:56:52;;;;;;;4.07;2.10;;;;;;;27.39;24.66;99782.50;4487504;31;34905;-80
2022/07/15 12:59:58;;;;;;;4.90;2.17;;;;;;;27.22;25.06;99780.72;4485834;31;34462;-81
2022/07/15 13:03:36;;;;;;;4.43;2.15;;;;;;;27.50;24.40;99799.25;4486308;31;35151;-81
2022/07/15 13:06:22;;;;;;;4.50;2.00;;;;;;;27.21;23.44;99785.56;4487349;31;35234;-81
2022/07/15 13:09:09;;;;;;;4.50;2.47;;;;;;;27.14;23.46;99797.66;4482070;31;34983;-83
2022/07/15 13:11:57;;;;;;;5.70;2.03;;;;;;;27.43;23.51;99804.97;4489052;31;34305;-82
2022/07/15 13:14:44;;;;;;;4.47;2.20;;;;;;;27.16;22.88;99794.47;4289973;31;6227073;-81
2022/07/15 13:17:32;;;;;;;3.08;2.20;;;;;;;27.80;23.73;99802.06;4473938;31;34633;-82
2022/07/15 13:20:20;;;;;;;5.72;1.90;;;;;;;27.82;24.64;99792.41;4484406;31;35916;-81
2022/07/15 13:23:11;;;;;;;4.28;2.30;;;;;;;27.26;24.08;99804.75;4496724;31;35388;-82
2022/07/15 13:25:59;;;;;;;4.35;1.87;;;;;;;27.27;23.38;99800.75;4491240;31;33892;-82
2022/07/15 13:28:53;;;;;;;3.95;1.90;;;;;;;27.70;23.58;99802.19;4496469;31;35708;-81
2022/07/15 13:31:43;;;;;;;7.75;2.00;;;;;;;28.39;23.21;99819.66;4493105;31;35891;-83
2022/07/15 13:34:31;;;;;;;5.50;1.90;;;;;;;27.75;24.07;99802.53;4472320;31;35594;-82
2022/07/15 13:37:23;;;;;;;3.85;1.95;;;;;;;27.11;25.01;99808.94;4493085;31;36299;-81
2022/07/15 13:40:13;;;;;;;3.85;2.00;;;;;;;27.92;22.54;99813.97;4481179;31;35241;-81
2022/07/15 13:43:03;;;;;;;4.37;1.80;;;;;;;28.41;21.43;99817.22;4479509;31;34903;-79
2022/07/15 13:46:00;;;;;;;5.22;1.90;;;;;;;27.73;22.93;99821.84;4489175;31;34694;-81
2022/07/15 13:48:48;;;;;;;5.78;2.30;;;;;;;27.72;24.07;99820.25;4489745;31;33831;-82
2022/07/15 13:51:41;;;;;;;4.75;2.28;;;;;;;27.77;24.15;99811.31;4491120;31;34342;-82
2022/07/15 13:57:32;;;;;;;4.62;1.83;;;;;;;28.07;24.30;99812.53;4493940;31;35193;-81
2022/07/15 14:00:26;;;;;;;4.68;1.83;;;;;;;27.61;24.38;99813.97;4482692;31;34986;-79